createdAt,value
2023-04-02T00:01:17.172Z,10.25
2023-04-02T00:04:22.508Z,10.24
2023-04-02T00:07:21.451Z,10.22
2023-04-02T00:09:49.887Z,10.30
2023-04-02T00:12:20.311Z,10.34
2023-04-02T00:14:53.605Z,10.38
2023-04-02T00:17:24.670Z,10.41
2023-04-02T00:19:57.066Z,10.44
2023-04-02T00:22:28.536Z,10.47
2023-04-02T00:25:00.392Z,10.52
2023-04-02T00:27:31.967Z,10.51
2023-04-02T00:29:59.774Z,10.56
2023-04-02T00:32:29.143Z,10.53
2023-04-02T00:34:58.740Z,10.56
2023-04-02T00:37:28.993Z,10.58
2023-04-02T00:40:01.632Z,10.57
2023-04-02T00:42:31.574Z,10.58
2023-04-02T00:44:59.606Z,10.63
2023-04-02T00:47:31.849Z,10.64
2023-04-02T00:50:02.611Z,10.62
2023-04-02T00:52:31.851Z,10.59
2023-04-02T00:55:06.262Z,10.61
2023-04-02T00:57:33.913Z,10.62
2023-04-02T01:00:12.689Z,10.63
2023-04-02T01:02:41.020Z,10.62
2023-04-02T01:05:22.652Z,10.60
2023-04-02T01:08:03.675Z,10.62
2023-04-02T01:10:50.284Z,10.60
2023-04-02T01:13:25.606Z,10.61
2023-04-02T01:15:56.413Z,10.67
2023-04-02T01:18:50.574Z,10.68
2023-04-02T01:21:33.892Z,10.70
2023-04-02T01:24:04.896Z,10.70
2023-04-02T01:26:45.829Z,10.74
2023-04-02T01:29:18.642Z,10.75
2023-04-02T01:31:47.389Z,10.76
2023-04-02T01:34:17.640Z,10.74
2023-04-02T01:36:55.717Z,10.73
2023-04-02T01:39:35.275Z,10.72
2023-04-02T01:42:11.437Z,10.79
2023-04-02T01:44:44.431Z,10.77
2023-04-02T01:47:13.273Z,10.77
2023-04-02T01:49:42.610Z,10.81
2023-04-02T01:52:16.282Z,10.83
2023-04-02T01:54:44.482Z,10.84
2023-04-02T01:57:12.595Z,10.84
2023-04-02T01:59:41.255Z,10.87
2023-04-02T02:02:12.483Z,10.89
2023-04-02T02:04:41.336Z,10.87
2023-04-02T02:07:14.877Z,10.88
2023-04-02T02:09:44.865Z,10.91
2023-04-02T02:12:14.055Z,10.94
2023-04-02T02:14:49.044Z,10.95
2023-04-02T02:17:18.461Z,10.94
2023-04-02T02:19:48.000Z,10.95
2023-04-02T02:22:21.986Z,10.95
2023-04-02T02:24:49.259Z,10.93
2023-04-02T02:27:47.089Z,10.94
2023-04-02T02:30:20.060Z,10.89
2023-04-02T02:32:52.970Z,10.90
2023-04-02T02:35:23.746Z,10.90
2023-04-02T02:37:57.902Z,10.92
2023-04-02T02:40:31.905Z,10.90
2023-04-02T02:43:04.449Z,10.92
2023-04-02T02:45:38.019Z,10.89
2023-04-02T02:48:10.869Z,10.93
2023-04-02T02:50:38.933Z,10.90
2023-04-02T02:53:20.214Z,10.89
2023-04-02T02:55:49.465Z,10.90
2023-04-02T02:58:27.500Z,10.86
2023-04-02T03:01:18.821Z,10.83
2023-04-02T03:03:48.473Z,10.82
2023-04-02T03:06:17.409Z,10.84
2023-04-02T03:08:56.911Z,10.79
2023-04-02T03:11:36.940Z,10.71
2023-04-02T03:14:18.433Z,10.61
2023-04-02T03:16:49.931Z,10.58
2023-04-02T03:19:28.491Z,10.51
2023-04-02T03:22:02.999Z,10.46
2023-04-02T03:24:41.610Z,10.40
2023-04-02T03:27:12.111Z,10.38
2023-04-02T03:29:45.550Z,10.31
2023-04-02T03:32:20.774Z,10.33
2023-04-02T03:34:52.025Z,10.31
2023-04-02T03:37:24.113Z,10.27
2023-04-02T03:39:54.905Z,10.28
2023-04-02T03:42:26.896Z,10.29
2023-04-02T03:45:03.289Z,10.30
2023-04-02T03:47:40.054Z,10.30
2023-04-02T03:50:11.341Z,10.35
2023-04-02T03:52:39.604Z,10.39
2023-04-02T03:55:16.011Z,10.39
2023-04-02T03:57:51.878Z,10.39
2023-04-02T04:00:24.307Z,10.41
2023-04-02T04:03:02.586Z,10.45
2023-04-02T04:05:34.624Z,10.46
2023-04-02T04:08:06.564Z,10.49
2023-04-02T04:10:36.224Z,10.49
2023-04-02T04:13:07.328Z,10.47
2023-04-02T04:15:38.375Z,10.48
2023-04-02T04:18:19.586Z,10.50
2023-04-02T04:20:56.465Z,10.54
2023-04-02T04:23:30.701Z,10.56
2023-04-02T04:26:09.859Z,10.55
2023-04-02T04:28:45.080Z,10.58
2023-04-02T04:31:21.547Z,10.64
2023-04-02T04:34:03.552Z,10.64
2023-04-02T04:36:41.591Z,10.70
2023-04-02T04:39:18.006Z,10.75
2023-04-02T04:41:51.899Z,10.76
2023-04-02T04:44:24.840Z,10.78
2023-04-02T04:47:00.148Z,10.82
2023-04-02T04:49:35.601Z,10.84
2023-04-02T04:52:09.154Z,10.80
2023-04-02T04:54:39.643Z,10.83
2023-04-02T04:57:22.867Z,10.85
2023-04-02T04:59:55.602Z,10.85
2023-04-02T05:02:26.775Z,10.84
2023-04-02T05:04:57.133Z,10.85
2023-04-02T05:07:29.440Z,10.88
2023-04-02T05:10:02.823Z,10.91
2023-04-02T05:12:40.462Z,10.91
2023-04-02T05:15:16.121Z,10.93
2023-04-02T05:17:50.463Z,10.98
2023-04-02T05:20:26.506Z,11.03
2023-04-02T05:23:02.397Z,11.04
2023-04-02T05:25:31.794Z,11.10
2023-04-02T05:28:07.532Z,11.13
2023-04-02T05:30:49.789Z,11.20
2023-04-02T05:33:27.143Z,11.26
2023-04-02T05:36:00.990Z,11.34
2023-04-02T05:38:32.476Z,11.40
2023-04-02T05:41:03.347Z,11.50
2023-04-02T05:43:34.175Z,11.57
2023-04-02T05:46:13.975Z,11.59
2023-04-02T05:48:46.204Z,11.61
2023-04-02T05:51:20.971Z,11.56
2023-04-02T05:53:51.494Z,11.58
2023-04-02T05:56:22.626Z,11.60
2023-04-02T05:58:54.600Z,11.58
2023-04-02T06:01:39.283Z,11.56
2023-04-02T06:04:21.215Z,11.57
2023-04-02T06:06:57.954Z,11.59
2023-04-02T06:09:34.428Z,11.59
2023-04-02T06:12:12.931Z,11.62
2023-04-02T06:14:40.786Z,11.61
2023-04-02T06:17:12.605Z,11.64
2023-04-02T06:19:39.888Z,11.64
2023-04-02T06:22:22.872Z,11.67
2023-04-02T06:25:00.042Z,11.70
2023-04-02T06:27:28.178Z,11.68
2023-04-02T06:30:01.393Z,11.70
2023-04-02T06:32:30.711Z,11.73
2023-04-02T06:34:58.247Z,11.74
2023-04-02T06:37:32.318Z,11.73
2023-04-02T06:40:38.411Z,11.77
2023-04-02T06:43:33.192Z,11.79
2023-04-02T06:46:42.722Z,11.86
2023-04-02T06:49:19.348Z,11.95
2023-04-02T06:51:51.197Z,12.05
2023-04-02T06:54:21.072Z,12.10
2023-04-02T06:56:56.310Z,12.16
2023-04-02T06:59:31.474Z,12.21
2023-04-02T07:02:06.709Z,12.26
2023-04-02T07:04:34.580Z,12.31
2023-04-02T07:07:02.244Z,12.35
2023-04-02T07:09:34.425Z,12.37
2023-04-02T07:12:11.431Z,12.43
2023-04-02T07:14:38.596Z,12.45
2023-04-02T07:17:05.881Z,12.44
2023-04-02T07:19:33.100Z,12.42
2023-04-02T07:22:00.428Z,12.42
2023-04-02T07:24:35.528Z,12.46
2023-04-02T07:27:02.582Z,12.55
2023-04-02T07:29:29.719Z,12.66
2023-04-02T07:31:56.688Z,12.70
2023-04-02T07:34:25.566Z,12.78
2023-04-02T07:36:52.885Z,12.83
2023-04-02T07:39:19.945Z,12.89
2023-04-02T07:41:56.081Z,12.94
2023-04-02T07:44:23.421Z,12.99
2023-04-02T07:46:50.736Z,13.04
2023-04-02T07:49:17.720Z,13.07
2023-04-02T07:51:44.937Z,13.13
2023-04-02T07:54:13.148Z,13.18
2023-04-02T07:56:43.243Z,13.29
2023-04-02T07:59:11.962Z,13.37
2023-04-02T08:01:40.232Z,13.42
2023-04-02T08:04:15.965Z,13.50
2023-04-02T08:06:43.406Z,13.52
2023-04-02T08:09:10.358Z,13.54
2023-04-02T08:11:37.317Z,13.60
2023-04-02T08:14:04.326Z,13.68
2023-04-02T08:16:46.137Z,13.78
2023-04-02T08:19:13.788Z,13.88
2023-04-02T08:21:40.762Z,13.95
2023-04-02T08:24:08.051Z,14.02
2023-04-02T08:26:35.135Z,14.12
2023-04-02T08:29:02.247Z,14.19
2023-04-02T08:31:30.400Z,14.25
2023-04-02T08:33:58.896Z,14.35
2023-04-02T08:36:30.729Z,14.39
2023-04-02T08:38:57.736Z,14.46
2023-04-02T08:41:31.124Z,14.50
2023-04-02T08:44:16.447Z,14.58
2023-04-02T08:46:48.450Z,14.60
2023-04-02T08:49:19.762Z,14.64
2023-04-02T08:51:47.670Z,14.69
2023-04-02T08:54:22.415Z,14.71
2023-04-02T08:56:55.625Z,14.77
2023-04-02T08:59:31.914Z,14.86
2023-04-02T09:02:07.084Z,14.89
2023-04-02T09:04:36.977Z,14.94
2023-04-02T09:07:04.461Z,14.88
2023-04-02T09:09:38.016Z,14.92
2023-04-02T09:12:07.344Z,14.99
2023-04-02T09:14:43.473Z,15.07
2023-04-02T09:17:20.107Z,15.20
2023-04-02T09:19:56.252Z,15.39
2023-04-02T09:22:26.209Z,15.58
2023-04-02T09:24:54.044Z,15.81
2023-04-02T09:27:23.601Z,16.00
2023-04-02T09:30:00.785Z,16.30
2023-04-02T09:32:40.549Z,16.60
2023-04-02T09:35:24.586Z,16.83
2023-04-02T09:38:17.130Z,16.94
2023-04-02T09:40:48.491Z,16.91
2023-04-02T09:43:17.945Z,16.92
2023-04-02T09:45:56.275Z,16.94
2023-04-02T09:48:26.464Z,16.92
2023-04-02T09:51:07.202Z,16.97
2023-04-02T09:53:36.149Z,17.01
2023-04-02T09:56:12.967Z,17.09
2023-04-02T09:58:41.170Z,17.20
2023-04-02T10:01:28.495Z,17.50
2023-04-02T10:03:56.330Z,17.98
2023-04-02T10:06:25.956Z,18.17
2023-04-02T10:08:53.212Z,18.73
2023-04-02T10:11:26.960Z,19.37
2023-04-02T10:14:00.586Z,19.75
2023-04-02T10:16:33.279Z,19.71
2023-04-02T10:19:07.181Z,19.66
2023-04-02T10:21:37.505Z,19.93
2023-04-02T10:24:12.177Z,20.39
2023-04-02T10:26:51.790Z,20.79
2023-04-02T10:29:33.882Z,21.00
2023-04-02T10:32:07.152Z,21.28
2023-04-02T10:34:41.696Z,21.53
2023-04-02T10:37:37.598Z,21.41
2023-04-02T10:40:11.404Z,20.82
2023-04-02T10:42:44.862Z,20.38
2023-04-02T10:45:22.152Z,20.32
2023-04-02T10:47:57.871Z,20.08
2023-04-02T10:50:32.536Z,20.50
2023-04-02T10:53:11.447Z,20.86
2023-04-02T10:55:43.815Z,20.90
2023-04-02T10:58:22.790Z,20.74
2023-04-02T11:00:53.750Z,20.38
2023-04-02T11:03:31.790Z,20.46
2023-04-02T11:06:02.415Z,20.81
2023-04-02T11:08:40.640Z,21.01
2023-04-02T11:11:12.193Z,21.51
2023-04-02T11:13:51.012Z,21.59
2023-04-02T11:16:18.466Z,20.99
2023-04-02T11:19:17.923Z,20.47
2023-04-02T11:21:58.149Z,20.26
2023-04-02T11:24:39.271Z,20.53
2023-04-02T11:27:16.512Z,20.49
2023-04-02T11:29:46.154Z,20.44
2023-04-02T11:32:31.206Z,20.32
2023-04-02T11:35:28.022Z,20.16
2023-04-02T11:37:56.776Z,19.78
2023-04-02T11:40:49.386Z,19.53
2023-04-02T11:43:48.435Z,19.32
2023-04-02T11:46:40.291Z,19.12
2023-04-02T11:49:41.201Z,19.20
2023-04-02T11:52:29.869Z,19.33
2023-04-02T11:54:59.601Z,19.30
2023-04-02T11:57:43.860Z,19.18
2023-04-02T12:00:36.333Z,19.00
2023-04-02T12:03:30.084Z,18.81
2023-04-02T12:06:06.352Z,18.59
2023-04-02T12:08:56.952Z,18.52
2023-04-02T12:11:35.345Z,18.44
2023-04-02T12:14:27.487Z,18.53
2023-04-02T12:16:54.784Z,18.59
2023-04-02T12:19:25.210Z,18.60
2023-04-02T12:21:53.290Z,18.57
2023-04-02T12:24:22.502Z,18.45
2023-04-02T12:26:49.643Z,18.40
2023-04-02T12:29:26.937Z,18.32
2023-04-02T12:31:55.783Z,18.42
2023-04-02T12:34:25.582Z,18.58
2023-04-02T12:36:55.090Z,18.68
2023-04-02T12:39:22.724Z,18.72
2023-04-02T12:41:49.805Z,18.67
2023-04-02T12:44:21.750Z,18.58
2023-04-02T12:46:49.946Z,18.57
2023-04-02T12:49:25.250Z,18.54
2023-04-02T12:51:53.136Z,18.53
2023-04-02T12:54:21.016Z,18.56
2023-04-02T12:56:48.988Z,18.47
2023-04-02T12:59:29.579Z,18.46
2023-04-02T13:01:58.268Z,18.49
2023-04-02T13:04:25.516Z,18.53
2023-04-02T13:06:56.898Z,18.57
2023-04-02T13:09:30.876Z,18.54
2023-04-02T13:11:58.447Z,18.56
2023-04-02T13:14:27.308Z,18.58
2023-04-02T13:16:54.976Z,18.62
2023-04-02T13:19:28.966Z,18.67
2023-04-02T13:21:58.524Z,18.73
2023-04-02T13:24:26.996Z,18.87
2023-04-02T13:26:56.018Z,19.00
2023-04-02T13:29:29.851Z,19.09
2023-04-02T13:31:59.375Z,19.12
2023-04-02T13:34:26.609Z,19.10
2023-04-02T13:36:53.780Z,19.09
2023-04-02T13:39:21.704Z,19.09
2023-04-02T13:41:51.528Z,19.03
2023-04-02T13:44:21.679Z,18.97
2023-04-02T13:46:50.493Z,18.93
2023-04-02T13:49:17.604Z,18.87
2023-04-02T13:51:47.320Z,18.83
2023-04-02T13:54:25.764Z,18.83
2023-04-02T13:56:52.960Z,19.07
2023-04-02T13:59:20.546Z,19.41
2023-04-02T14:01:51.187Z,19.76
2023-04-02T14:04:22.020Z,19.97
2023-04-02T14:07:06.691Z,20.26
2023-04-02T14:09:44.511Z,20.31
2023-04-02T14:12:20.674Z,20.21
2023-04-02T14:15:01.963Z,20.09
2023-04-02T14:17:37.877Z,19.90
2023-04-02T14:20:17.068Z,19.86
2023-04-02T14:22:59.021Z,19.93
2023-04-02T14:25:37.101Z,19.84
2023-04-02T14:28:15.984Z,19.95
2023-04-02T14:30:54.977Z,20.06
2023-04-02T14:33:34.062Z,20.12
2023-04-02T14:36:13.050Z,20.16
2023-04-02T14:38:47.251Z,20.16
2023-04-02T14:41:22.601Z,20.22
2023-04-02T14:43:53.789Z,20.21
2023-04-02T14:46:26.029Z,20.35
2023-04-02T14:48:57.081Z,20.28
2023-04-02T14:51:30.858Z,20.26
2023-04-02T14:54:04.656Z,20.20
2023-04-02T14:56:38.247Z,20.27
2023-04-02T14:59:21.057Z,20.32
2023-04-02T15:01:53.013Z,20.32
2023-04-02T15:04:28.114Z,20.27
2023-04-02T15:06:58.008Z,20.04
2023-04-02T15:09:28.637Z,19.84
2023-04-02T15:11:59.432Z,19.76
2023-04-02T15:14:31.689Z,19.61
2023-04-02T15:16:58.710Z,19.52
2023-04-02T15:19:27.108Z,19.41
2023-04-02T15:22:26.803Z,19.30
2023-04-02T15:25:05.367Z,19.24
2023-04-02T15:27:48.325Z,19.15
2023-04-02T15:30:20.641Z,19.03
2023-04-02T15:32:49.044Z,18.91
2023-04-02T15:35:35.503Z,18.83
2023-04-02T15:38:12.018Z,18.74
2023-04-02T15:40:50.518Z,18.67
2023-04-02T15:43:22.771Z,18.63
2023-04-02T15:45:58.107Z,18.57
2023-04-02T15:48:52.988Z,18.50
2023-04-02T15:51:33.137Z,18.38
2023-04-02T15:54:10.706Z,18.25
2023-04-02T15:56:48.587Z,18.13
2023-04-02T15:59:40.790Z,18.01
2023-04-02T16:02:32.838Z,17.87
2023-04-02T16:05:04.918Z,17.76
2023-04-02T16:08:01.264Z,17.65
2023-04-02T16:10:40.895Z,17.51
2023-04-02T16:13:16.951Z,17.40
2023-04-02T16:15:49.307Z,17.31
2023-04-02T16:18:22.159Z,17.20
2023-04-02T16:20:53.047Z,17.12
2023-04-02T16:23:34.115Z,17.05
2023-04-02T16:26:09.195Z,16.99
2023-04-02T16:28:38.720Z,16.93
2023-04-02T16:31:13.873Z,16.82
2023-04-02T16:33:54.614Z,16.73
2023-04-02T16:36:34.783Z,16.68
2023-04-02T16:39:14.569Z,16.62
2023-04-02T16:41:53.870Z,16.54
2023-04-02T16:44:30.658Z,16.43
2023-04-02T16:47:11.242Z,16.34
2023-04-02T16:49:46.651Z,16.27
2023-04-02T16:52:29.067Z,16.14
2023-04-02T16:55:11.547Z,16.05
2023-04-02T16:57:48.849Z,15.97
2023-04-02T17:00:23.817Z,15.90
2023-04-02T17:03:06.155Z,15.81
2023-04-02T17:05:40.365Z,15.73
2023-04-02T17:08:17.352Z,15.64
2023-04-02T17:10:51.224Z,15.50
2023-04-02T17:13:27.928Z,15.27
2023-04-02T17:16:06.329Z,15.11
2023-04-02T17:18:34.107Z,15.05
2023-04-02T17:21:08.464Z,14.99
2023-04-02T17:23:55.780Z,14.86
2023-04-02T17:26:28.021Z,14.75
2023-04-02T17:28:58.100Z,14.70
2023-04-02T17:31:27.434Z,14.64
2023-04-02T17:33:54.578Z,14.61
2023-04-02T17:36:34.891Z,14.58
2023-04-02T17:39:14.536Z,14.54
2023-04-02T17:41:51.410Z,14.49
2023-04-02T17:44:34.853Z,14.49
2023-04-02T17:47:09.459Z,14.47
2023-04-02T17:49:46.740Z,14.46
2023-04-02T17:52:20.389Z,14.42
2023-04-02T17:54:54.250Z,14.37
2023-04-02T17:57:38.893Z,14.33
2023-04-02T18:00:22.975Z,14.26
2023-04-02T18:03:00.815Z,14.17
2023-04-02T18:05:32.847Z,14.12
2023-04-02T18:08:14.632Z,14.07
2023-04-02T18:10:49.118Z,14.04
2023-04-02T18:13:30.873Z,14.02
2023-04-02T18:16:24.919Z,13.97
2023-04-02T18:19:10.727Z,13.90
2023-04-02T18:21:46.692Z,13.86
2023-04-02T18:24:39.179Z,13.77
2023-04-02T18:27:28.817Z,13.72
2023-04-02T18:30:09.482Z,13.66
2023-04-02T18:32:54.052Z,13.55
2023-04-02T18:35:25.600Z,13.49
2023-04-02T18:38:11.667Z,13.41
2023-04-02T18:40:46.811Z,13.36
2023-04-02T18:43:28.224Z,13.30
2023-04-02T18:46:05.230Z,13.23
2023-04-02T18:48:41.593Z,13.14
2023-04-02T18:51:14.526Z,13.11
2023-04-02T18:53:43.247Z,13.10
2023-04-02T18:56:14.193Z,13.07
2023-04-02T18:58:52.789Z,13.06
2023-04-02T19:01:28.025Z,12.98
2023-04-02T19:03:57.083Z,12.91
2023-04-02T19:06:28.885Z,12.80
2023-04-02T19:08:59.704Z,12.76
2023-04-02T19:11:31.293Z,12.75
2023-04-02T19:14:01.489Z,12.74
2023-04-02T19:17:09.545Z,12.74
2023-04-02T19:19:45.721Z,12.64
2023-04-02T19:22:30.067Z,12.59
2023-04-02T19:25:14.888Z,12.51
2023-04-02T19:27:55.104Z,12.41
2023-04-02T19:30:41.093Z,12.31
2023-04-02T19:33:21.169Z,12.16
2023-04-02T19:35:56.746Z,12.09
2023-04-02T19:38:41.914Z,12.04
2023-04-02T19:41:21.199Z,12.02
2023-04-02T19:43:48.235Z,12.03
2023-04-02T19:46:15.585Z,12.04
2023-04-02T19:48:49.807Z,12.05
2023-04-02T19:51:17.046Z,12.03
2023-04-02T19:53:44.088Z,12.00
2023-04-02T19:56:11.093Z,11.88
2023-04-02T19:58:38.375Z,11.79
2023-04-02T20:01:05.372Z,11.75
2023-04-02T20:03:32.630Z,11.73
2023-04-02T20:06:01.294Z,11.65
2023-04-02T20:08:29.248Z,11.65
2023-04-02T20:11:01.098Z,11.62
2023-04-02T20:13:28.191Z,11.60
2023-04-02T20:16:02.351Z,11.56
2023-04-02T20:18:30.020Z,11.49
2023-04-02T20:20:57.044Z,11.43
2023-04-02T20:23:25.494Z,11.41
2023-04-02T20:25:56.210Z,11.37
2023-04-02T20:28:24.828Z,11.34
2023-04-02T20:30:52.523Z,11.28
2023-04-02T20:33:22.122Z,11.22
2023-04-02T20:35:50.706Z,11.18
2023-04-02T20:38:18.431Z,11.13
2023-04-02T20:40:53.071Z,11.11
2023-04-02T20:43:20.068Z,11.04
2023-04-02T20:45:54.694Z,10.93
2023-04-02T20:48:22.350Z,10.87
2023-04-02T20:50:49.785Z,10.81
2023-04-02T20:53:17.279Z,10.74
2023-04-02T20:55:48.618Z,10.67
2023-04-02T20:58:19.002Z,10.59
2023-04-02T21:00:46.166Z,10.55
2023-04-02T21:03:13.240Z,10.52
2023-04-02T21:05:43.685Z,10.48
2023-04-02T21:08:10.975Z,10.43
2023-04-02T21:10:38.719Z,10.41
2023-04-02T21:13:06.041Z,10.39
2023-04-02T21:15:34.639Z,10.35
2023-04-02T21:18:01.897Z,10.32
2023-04-02T21:20:29.223Z,10.25
2023-04-02T21:22:56.159Z,10.22
2023-04-02T21:25:23.058Z,10.15
2023-04-02T21:27:52.943Z,10.10
2023-04-02T21:30:23.364Z,10.06
2023-04-02T21:32:51.733Z,10.02
2023-04-02T21:35:18.737Z,9.95
2023-04-02T21:37:45.730Z,9.91
2023-04-02T21:40:12.656Z,9.87
2023-04-02T21:42:39.626Z,9.86
2023-04-02T21:45:07.392Z,9.83
2023-04-02T21:47:34.348Z,9.81
2023-04-02T21:50:02.985Z,9.82
2023-04-02T21:52:29.930Z,9.76
2023-04-02T21:54:56.878Z,9.69
2023-04-02T21:57:24.039Z,9.68
2023-04-02T21:59:51.020Z,9.69
2023-04-02T22:02:17.967Z,9.69
2023-04-02T22:04:45.204Z,9.70
2023-04-02T22:07:13.763Z,9.64
2023-04-02T22:09:40.727Z,9.59
2023-04-02T22:12:08.210Z,9.55
2023-04-02T22:14:35.479Z,9.54
2023-04-02T22:17:03.491Z,9.47
2023-04-02T22:19:30.933Z,9.41
2023-04-02T22:21:57.869Z,9.42
2023-04-02T22:24:26.619Z,9.43
2023-04-02T22:26:53.932Z,9.43
2023-04-02T22:29:21.350Z,9.38
2023-04-02T22:31:48.277Z,9.34
2023-04-02T22:34:15.854Z,9.35
2023-04-02T22:36:42.947Z,9.39
2023-04-02T22:39:12.141Z,9.42
2023-04-02T22:41:40.612Z,9.43
2023-04-02T22:44:07.952Z,9.41
2023-04-02T22:46:35.129Z,9.40
2023-04-02T22:49:02.246Z,9.37
2023-04-02T22:51:29.509Z,9.35
2023-04-02T22:53:56.699Z,9.33
2023-04-02T22:56:26.706Z,9.28
2023-04-02T22:58:55.055Z,9.15
2023-04-02T23:01:25.012Z,9.09
2023-04-02T23:03:53.266Z,9.09
2023-04-02T23:06:20.896Z,9.05
2023-04-02T23:08:48.160Z,9.01
2023-04-02T23:11:17.242Z,8.97
2023-04-02T23:13:46.841Z,8.94
2023-04-02T23:16:15.555Z,8.98
2023-04-02T23:18:43.764Z,9.00
2023-04-02T23:21:10.871Z,9.03
2023-04-02T23:23:38.232Z,9.06
2023-04-02T23:26:07.677Z,9.04
2023-04-02T23:28:34.881Z,9.02
2023-04-02T23:31:04.593Z,9.01
2023-04-02T23:33:33.134Z,9.04
2023-04-02T23:36:00.212Z,9.10
2023-04-02T23:38:27.576Z,9.16
2023-04-02T23:40:54.999Z,9.20
2023-04-02T23:43:21.932Z,9.21
2023-04-02T23:45:49.063Z,9.21
2023-04-02T23:48:16.881Z,9.19
2023-04-02T23:50:47.465Z,9.20
2023-04-02T23:53:14.491Z,9.22
2023-04-02T23:55:41.574Z,9.24
2023-04-02T23:58:08.562Z,9.25
